createdAt,value
2022-08-07T00:03:28.312Z,11.55
2022-08-07T00:13:58.488Z,13.67
2022-08-07T00:24:20.960Z,12.80
2022-08-07T00:34:49.180Z,13.18
2022-08-07T00:45:16.130Z,11.90
2022-08-07T00:56:00.797Z,12.07
2022-08-07T01:06:21.945Z,13.88
2022-08-07T01:16:47.345Z,13.93
2022-08-07T01:27:19.528Z,14.88
2022-08-07T01:37:41.937Z,11.98
2022-08-07T01:48:19.303Z,12.45
2022-08-07T01:58:54.720Z,11.07
2022-08-07T02:09:33.526Z,14.73
2022-08-07T02:20:10.044Z,12.48
2022-08-07T02:30:40.722Z,12.88
2022-08-07T02:41:04.313Z,13.15
2022-08-07T02:51:49.773Z,17.83
2022-08-07T03:02:13.197Z,16.60
2022-08-07T03:12:37.352Z,16.30
2022-08-07T03:22:59.696Z,10.85
2022-08-07T03:33:21.322Z,12.30
2022-08-07T03:43:56.752Z,16.50
2022-08-07T03:54:35.488Z,12.93
2022-08-07T04:05:00.856Z,15.18
2022-08-07T04:25:46.278Z,13.30
2022-08-07T04:36:10.961Z,13.07
2022-08-07T04:58:26.182Z,12.88
2022-08-07T05:08:45.766Z,16.55
2022-08-07T05:19:13.244Z,15.18
2022-08-07T05:29:50.994Z,14.57
2022-08-07T05:40:18.702Z,16.52
2022-08-07T05:50:42.961Z,19.58
2022-08-07T06:01:11.104Z,19.25
2022-08-07T06:11:34.490Z,15.77
2022-08-07T06:22:11.725Z,13.85
2022-08-07T06:32:38.073Z,16.08
2022-08-07T06:43:03.861Z,11.02
2022-08-07T06:55:28.226Z,11.00
2022-08-07T07:04:32.037Z,9.75
2022-08-07T07:15:03.869Z,11.68
2022-08-07T07:26:34.226Z,12.88
2022-08-07T07:36:13.476Z,9.48
2022-08-07T07:46:54.421Z,9.10
2022-08-07T07:57:43.719Z,9.83
2022-08-07T08:08:03.819Z,7.53
2022-08-07T08:18:27.599Z,9.27
2022-08-07T08:28:51.877Z,7.35
2022-08-07T08:39:15.461Z,8.15
2022-08-07T08:50:02.637Z,7.30
2022-08-07T09:00:30.314Z,5.75
2022-08-07T09:11:24.673Z,6.10
2022-08-07T09:22:39.399Z,6.60
2022-08-07T09:32:53.792Z,6.68
2022-08-07T09:44:03.092Z,5.50
2022-08-07T09:54:27.196Z,7.85
2022-08-07T10:05:12.601Z,6.50
2022-08-07T10:15:57.371Z,7.97
2022-08-07T10:26:52.978Z,8.32
2022-08-07T10:37:59.960Z,7.22
2022-08-07T10:48:25.085Z,5.57
2022-08-07T10:59:13.618Z,8.07
2022-08-07T11:10:07.358Z,5.75
2022-08-07T11:20:43.602Z,3.40
2022-08-07T11:31:38.905Z,6.20
2022-08-07T11:42:18.615Z,4.10
2022-08-07T11:53:04.989Z,3.23
2022-08-07T12:03:44.588Z,3.60
2022-08-07T12:14:19.142Z,4.82
2022-08-07T12:26:06.082Z,3.70
2022-08-07T12:36:05.693Z,3.33
2022-08-07T12:46:40.800Z,3.33
2022-08-07T12:57:09.604Z,5.90
2022-08-07T13:08:12.494Z,3.73
2022-08-07T13:18:49.157Z,4.00
2022-08-07T13:29:21.698Z,3.33
2022-08-07T13:40:35.883Z,4.47
2022-08-07T13:50:45.319Z,5.15
2022-08-07T14:01:20.390Z,4.47
2022-08-07T14:11:53.505Z,4.10
2022-08-07T14:22:34.692Z,4.93
2022-08-07T14:33:00.017Z,4.50
2022-08-07T14:43:57.987Z,8.90
2022-08-07T14:54:31.210Z,4.82
2022-08-07T15:04:52.952Z,2.60
2022-08-07T15:15:23.580Z,1.98
2022-08-07T15:36:11.637Z,3.10
2022-08-07T15:46:39.173Z,1.92
2022-08-07T15:57:40.270Z,2.75
2022-08-07T16:08:30.695Z,3.05
2022-08-07T16:19:12.282Z,2.45
2022-08-07T16:30:11.167Z,1.60
2022-08-07T16:41:07.003Z,1.85
2022-08-07T16:52:52.110Z,1.80
2022-08-07T17:03:57.754Z,4.10
2022-08-07T17:14:41.887Z,2.10
2022-08-07T17:25:15.090Z,3.03
2022-08-07T17:35:54.767Z,3.63
2022-08-07T17:46:22.727Z,2.83
2022-08-07T17:57:18.826Z,4.13
2022-08-07T18:07:44.933Z,2.58
2022-08-07T18:18:46.372Z,5.85
2022-08-07T18:30:05.929Z,3.97
2022-08-07T18:40:08.173Z,3.70
2022-08-07T18:50:44.123Z,5.43
2022-08-07T19:02:16.992Z,4.22
2022-08-07T19:12:53.668Z,3.40
2022-08-07T19:23:58.178Z,3.58
2022-08-07T19:34:33.958Z,4.70
2022-08-07T19:45:08.698Z,6.10
2022-08-07T19:55:57.574Z,7.75
2022-08-07T20:06:15.435Z,6.53
2022-08-07T20:16:54.315Z,4.78
2022-08-07T20:27:46.066Z,2.33
2022-08-07T20:38:06.378Z,5.95
2022-08-07T20:48:30.891Z,4.63
2022-08-07T20:59:01.418Z,3.97
2022-08-07T21:09:28.601Z,5.13
2022-08-07T21:20:04.869Z,5.22
2022-08-07T21:30:56.790Z,5.90
2022-08-07T21:41:24.532Z,9.93
2022-08-07T21:52:16.679Z,5.47
2022-08-07T22:02:53.987Z,3.88
2022-08-07T22:13:16.584Z,3.72
2022-08-07T22:24:00.161Z,5.68
2022-08-07T22:34:35.491Z,6.55
2022-08-07T22:45:02.478Z,4.53
2022-08-07T22:55:36.764Z,4.80
2022-08-07T23:06:23.876Z,4.50
2022-08-07T23:16:54.971Z,4.78
2022-08-07T23:28:22.142Z,3.78
2022-08-07T23:38:55.778Z,4.10
2022-08-07T23:49:42.201Z,5.75
